Time;durP1;ratioP1;P1;durP2;ratioP2;P2;SDS_P1;SDS_P2;PMS_P1;PMS_P2;Temp;Humidity;BMP_temperature;BMP_pressure;BME280_temperature;BME280_humidity;BME280_pressure;Samples;Min_cycle;Max_cycle;Signal;HPM_P1;HPM_P2
2023/05/19 00:02:19;;;;;;;11.33;5.20;;;;;;;;;;5049712;28;20441;-60
2023/05/19 00:04:47;;;;;;;9.43;5.03;;;;;;;;;;5050347;28;20420;-60
2023/05/19 00:07:15;;;;;;;7.07;4.67;;;;;;;;;;5050168;28;20441;-60
2023/05/19 00:09:42;;;;;;;11.47;5.30;;;;;;;;;;5032392;28;20429;-60
2023/05/19 00:12:09;;;;;;;9.07;4.87;;;;;;;;;;5050011;28;20451;-60
2023/05/19 00:14:36;;;;;;;8.63;5.10;;;;;;;;;;5050085;28;20991;-60
2023/05/19 00:17:02;;;;;;;10.97;4.93;;;;;;;;;;5047694;28;20894;-60
2023/05/19 00:19:31;;;;;;;8.50;4.63;;;;;;;;;;5070136;28;20454;-60
2023/05/19 00:21:57;;;;;;;8.53;4.93;;;;;;;;;;5069958;28;21006;-60
2023/05/19 00:24:24;;;;;;;11.73;5.47;;;;;;;;;;5068316;28;20438;-60
2023/05/19 00:26:51;;;;;;;8.77;4.73;;;;;;;;;;5069520;28;20439;-60
2023/05/19 00:29:17;;;;;;;7.27;4.57;;;;;;;;;;5069608;28;20417;-60
2023/05/19 00:31:45;;;;;;;8.13;4.53;;;;;;;;;;5069488;28;20436;-60
2023/05/19 00:34:11;;;;;;;9.17;4.70;;;;;;;;;;5070032;28;20432;-60
2023/05/19 00:36:38;;;;;;;7.37;4.37;;;;;;;;;;5069616;28;20560;-60
2023/05/19 00:39:06;;;;;;;11.53;5.40;;;;;;;;;;5069517;28;20417;-60
2023/05/19 00:41:32;;;;;;;7.87;4.70;;;;;;;;;;5068236;28;20452;-59
2023/05/19 00:43:59;;;;;;;9.93;4.93;;;;;;;;;;5069483;28;20429;-60
2023/05/19 00:46:25;;;;;;;8.50;4.47;;;;;;;;;;5069919;28;20434;-60
2023/05/19 00:48:52;;;;;;;9.73;5.20;;;;;;;;;;5069438;28;20427;-60
2023/05/19 00:51:19;;;;;;;9.73;4.60;;;;;;;;;;5051536;28;20557;-60
2023/05/19 00:53:47;;;;;;;10.33;5.20;;;;;;;;;;5034619;28;20436;-61
2023/05/19 00:56:15;;;;;;;9.50;5.30;;;;;;;;;;5069389;28;20485;-61
2023/05/19 00:58:42;;;;;;;10.40;5.33;;;;;;;;;;5051812;28;20511;-60
2023/05/19 01:01:13;;;;;;;7.23;4.53;;;;;;;;;;5055082;28;20448;-60
2023/05/19 01:03:41;;;;;;;13.10;4.93;;;;;;;;;;5049193;28;20526;-60
2023/05/19 01:06:08;;;;;;;10.90;5.10;;;;;;;;;;5049325;28;20441;-60
2023/05/19 01:08:36;;;;;;;9.53;4.50;;;;;;;;;;5049186;28;20491;-60
2023/05/19 01:11:06;;;;;;;7.23;4.37;;;;;;;;;;5048901;28;20418;-61
2023/05/19 01:13:33;;;;;;;9.17;4.70;;;;;;;;;;5049489;28;20920;-60
2023/05/19 01:16:05;;;;;;;10.40;4.77;;;;;;;;;;5056070;28;20467;-60
2023/05/19 01:18:54;;;;;;;7.23;4.30;;;;;;;;;;5068487;28;20491;-60
2023/05/19 01:21:22;;;;;;;8.47;4.60;;;;;;;;;;5068943;28;20777;-61
2023/05/19 01:24:13;;;;;;;9.37;4.80;;;;;;;;;;5068724;28;20484;-60
2023/05/19 01:26:53;;;;;;;7.83;4.07;;;;;;;;;;5059937;28;20917;-60
2023/05/19 01:29:38;;;;;;;8.83;5.20;;;;;;;;;;5068905;28;20436;-60
2023/05/19 01:32:05;;;;;;;10.10;5.63;;;;;;;;;;5068875;28;20519;-60
2023/05/19 01:34:33;;;;;;;14.57;6.00;;;;;;;;;;5034230;28;20479;-60
2023/05/19 01:37:02;;;;;;;10.27;5.80;;;;;;;;;;5051572;28;20470;-60
2023/05/19 01:39:29;;;;;;;10.43;6.00;;;;;;;;;;5034436;28;20535;-60
2023/05/19 01:41:56;;;;;;;9.70;5.50;;;;;;;;;;5050770;28;20437;-61
2023/05/19 02:16:51;;;;;;;9.87;4.93;;;;;;;;;;5011088;28;20585;-64
2023/05/19 02:19:24;;;;;;;8.60;4.20;;;;;;;;;;5031463;28;20531;-60
2023/05/19 02:21:54;;;;;;;8.73;4.63;;;;;;;;;;5031624;28;20445;-60
2023/05/19 02:24:21;;;;;;;8.53;4.63;;;;;;;;;;5052172;28;20455;-60
2023/05/19 02:26:50;;;;;;;8.20;4.27;;;;;;;;;;5052097;28;20859;-60
2023/05/19 02:29:17;;;;;;;18.27;6.13;;;;;;;;;;5052054;28;20494;-60
2023/05/19 02:31:44;;;;;;;8.50;4.53;;;;;;;;;;5030163;28;20963;-60
2023/05/19 02:34:11;;;;;;;9.67;4.40;;;;;;;;;;5032315;28;20425;-61
2023/05/19 02:36:39;;;;;;;10.40;4.43;;;;;;;;;;5032082;28;20473;-61
2023/05/19 02:39:08;;;;;;;9.00;4.57;;;;;;;;;;5031484;28;20856;-61
2023/05/19 02:41:34;;;;;;;9.00;4.60;;;;;;;;;;5032161;28;20442;-61
2023/05/19 02:44:01;;;;;;;7.07;3.90;;;;;;;;;;5031508;28;20459;-59
2023/05/19 02:46:28;;;;;;;8.70;3.73;;;;;;;;;;5030949;28;20948;-61
2023/05/19 02:48:55;;;;;;;8.30;3.70;;;;;;;;;;5031657;28;20484;-60
2023/05/19 02:51:22;;;;;;;7.77;3.80;;;;;;;;;;5031729;28;20426;-64
2023/05/19 02:53:48;;;;;;;6.53;3.37;;;;;;;;;;5030983;28;20431;-61
2023/05/19 02:56:15;;;;;;;6.37;3.30;;;;;;;;;;5014147;28;20477;-59
2023/05/19 02:58:42;;;;;;;5.47;3.50;;;;;;;;;;5031691;28;20913;-61
2023/05/19 03:01:09;;;;;;;7.63;3.80;;;;;;;;;;5013879;28;20442;-60
2023/05/19 03:03:36;;;;;;;7.37;3.47;;;;;;;;;;5031615;28;20441;-61
2023/05/19 03:06:03;;;;;;;7.60;3.17;;;;;;;;;;5035201;28;20445;-59
2023/05/19 03:08:30;;;;;;;7.37;3.37;;;;;;;;;;5051210;28;20801;-59
2023/05/19 03:10:57;;;;;;;5.10;3.47;;;;;;;;;;5051236;28;20437;-59
2023/05/19 03:13:23;;;;;;;5.70;3.17;;;;;;;;;;5044598;28;21157;-61
2023/05/19 03:15:57;;;;;;;5.47;2.60;;;;;;;;;;5049911;28;20995;-60
2023/05/19 03:18:27;;;;;;;5.10;2.67;;;;;;;;;;5062152;28;20996;-60
2023/05/19 03:20:54;;;;;;;4.73;2.50;;;;;;;;;;5051083;28;20444;-60
2023/05/19 03:23:21;;;;;;;5.63;2.33;;;;;;;;;;5050227;28;20785;-61
2023/05/19 03:25:48;;;;;;;4.00;2.00;;;;;;;;;;5048688;28;20444;-60
2023/05/19 03:28:16;;;;;;;3.40;2.30;;;;;;;;;;5054420;28;20511;-61
2023/05/19 03:30:43;;;;;;;3.47;2.07;;;;;;;;;;5061541;28;20527;-61
2023/05/19 03:33:15;;;;;;;4.37;1.90;;;;;;;;;;5048993;28;20970;-60
2023/05/19 03:35:43;;;;;;;3.63;2.20;;;;;;;;;;5050723;28;20533;-61
2023/05/19 03:38:11;;;;;;;5.87;3.00;;;;;;;;;;5043975;28;20467;-61
2023/05/19 03:40:41;;;;;;;6.73;2.67;;;;;;;;;;5045984;28;20452;-61
2023/05/19 03:43:09;;;;;;;4.73;2.37;;;;;;;;;;5040096;28;20452;-60
2023/05/19 03:45:44;;;;;;;7.50;2.50;;;;;;;;;;5050789;28;20437;-60
2023/05/19 03:48:40;;;;;;;6.13;2.20;;;;;;;;;;5064205;28;20522;-61
2023/05/19 03:51:30;;;;;;;6.00;1.90;;;;;;;;;;5054208;28;20862;-61
2023/05/19 03:54:05;;;;;;;3.50;2.40;;;;;;;;;;5052460;28;20460;-61
2023/05/19 03:56:36;;;;;;;3.77;1.90;;;;;;;;;;5043063;28;20221;-61
2023/05/19 03:59:06;;;;;;;6.03;2.17;;;;;;;;;;5060111;28;20453;-61
2023/05/19 04:01:35;;;;;;;5.07;1.97;;;;;;;;;;5050225;28;20444;-61
2023/05/19 04:04:02;;;;;;;4.20;2.10;;;;;;;;;;5068246;28;20444;-61
2023/05/19 04:06:29;;;;;;;7.30;2.20;;;;;;;;;;5068075;28;20198;-60
2023/05/19 04:08:57;;;;;;;4.93;2.10;;;;;;;;;;5068373;28;20549;-60
2023/05/19 04:11:24;;;;;;;2.70;2.00;;;;;;;;;;5050359;28;20236;-60
2023/05/19 04:13:51;;;;;;;8.27;2.03;;;;;;;;;;5032801;28;20936;-60
2023/05/19 04:16:17;;;;;;;5.03;2.13;;;;;;;;;;5062978;28;20225;-60
2023/05/19 04:18:45;;;;;;;4.87;2.00;;;;;;;;;;5065052;28;20225;-60
2023/05/19 04:21:12;;;;;;;3.30;1.97;;;;;;;;;;5077911;28;20181;-60
2023/05/19 04:23:39;;;;;;;5.47;2.00;;;;;;;;;;5088266;28;20221;-61
2023/05/19 04:26:08;;;;;;;5.13;1.90;;;;;;;;;;5078862;28;20873;-60
2023/05/19 04:28:38;;;;;;;4.67;2.00;;;;;;;;;;5067494;28;20186;-62
2023/05/19 04:31:09;;;;;;;6.07;2.20;;;;;;;;;;5043984;28;20228;-61
2023/05/19 04:33:38;;;;;;;5.80;2.30;;;;;;;;;;5044295;28;20199;-61
2023/05/19 04:36:09;;;;;;;4.20;2.30;;;;;;;;;;5052947;28;20264;-61
2023/05/19 04:38:39;;;;;;;3.93;1.70;;;;;;;;;;5043492;28;20738;-61
2023/05/19 04:41:10;;;;;;;3.87;1.77;;;;;;;;;;5031541;28;20249;-61
2023/05/19 04:43:40;;;;;;;4.17;1.97;;;;;;;;;;5054077;28;20191;-61
2023/05/19 04:46:09;;;;;;;3.80;2.20;;;;;;;;;;5050470;28;20183;-61
2023/05/19 04:48:41;;;;;;;7.13;2.57;;;;;;;;;;5034700;28;20901;-61
2023/05/19 04:51:08;;;;;;;5.53;1.97;;;;;;;;;;5061584;28;20239;-61
2023/05/19 04:53:39;;;;;;;5.23;1.70;;;;;;;;;;5043913;28;20251;-61
2023/05/19 04:56:08;;;;;;;4.00;1.60;;;;;;;;;;5059105;28;20312;-61
2023/05/19 04:58:36;;;;;;;3.03;1.10;;;;;;;;;;5051804;28;20194;-62
2023/05/19 05:01:08;;;;;;;3.90;0.90;;;;;;;;;;5051407;28;20247;-61
2023/05/19 05:03:36;;;;;;;2.60;1.00;;;;;;;;;;5033995;28;20202;-61
2023/05/19 05:06:03;;;;;;;4.00;1.10;;;;;;;;;;5068010;28;20190;-61
2023/05/19 05:08:31;;;;;;;3.30;0.90;;;;;;;;;;5044063;28;20708;-62
2023/05/19 05:10:58;;;;;;;3.33;0.90;;;;;;;;;;5055359;28;20242;-61
2023/05/19 05:13:25;;;;;;;3.67;0.80;;;;;;;;;;5050227;28;20194;-61
2023/05/19 05:15:52;;;;;;;4.47;1.03;;;;;;;;;;5048822;28;20708;-61
2023/05/19 05:18:20;;;;;;;3.40;0.90;;;;;;;;;;5046327;28;21063;-60
2023/05/19 05:20:49;;;;;;;5.00;1.00;;;;;;;;;;5035555;28;20196;-61
2023/05/19 05:23:16;;;;;;;2.80;0.93;;;;;;;;;;5046697;28;20223;-61
2023/05/19 05:25:45;;;;;;;5.23;1.20;;;;;;;;;;5019348;28;20190;-61
2023/05/19 05:28:15;;;;;;;3.57;0.87;;;;;;;;;;5039436;28;20783;-61
2023/05/19 05:30:43;;;;;;;4.00;1.00;;;;;;;;;;5002316;28;20201;-61
2023/05/19 05:33:12;;;;;;;3.33;0.97;;;;;;;;;;5050579;28;20281;-62
2023/05/19 05:35:40;;;;;;;2.80;0.90;;;;;;;;;;5016435;28;20209;-62
2023/05/19 05:38:10;;;;;;;7.73;1.17;;;;;;;;;;5031760;28;20240;-61
2023/05/19 05:40:37;;;;;;;4.03;0.80;;;;;;;;;;5054670;28;20194;-61
2023/05/19 05:43:04;;;;;;;3.90;1.07;;;;;;;;;;5055008;28;20211;-61
2023/05/19 05:45:36;;;;;;;5.13;0.90;;;;;;;;;;5055052;28;20669;-61
2023/05/19 05:48:04;;;;;;;2.67;0.73;;;;;;;;;;5048799;28;20243;-61
2023/05/19 05:50:32;;;;;;;4.40;0.73;;;;;;;;;;5049929;28;20193;-60
2023/05/19 05:53:01;;;;;;;5.93;1.23;;;;;;;;;;5051032;28;20229;-60
2023/05/19 05:55:28;;;;;;;7.63;1.13;;;;;;;;;;5061191;28;20273;-61
2023/05/19 05:58:00;;;;;;;3.93;0.90;;;;;;;;;;5053817;28;20232;-60
2023/05/19 06:00:28;;;;;;;3.47;1.07;;;;;;;;;;5052891;28;20218;-59
2023/05/19 06:02:55;;;;;;;3.67;0.90;;;;;;;;;;5054214;28;20691;-60
2023/05/19 06:05:24;;;;;;;2.67;0.80;;;;;;;;;;5071155;28;20305;-60
2023/05/19 06:07:52;;;;;;;2.03;0.70;;;;;;;;;;5043097;28;20191;-60
2023/05/19 06:10:23;;;;;;;2.73;0.60;;;;;;;;;;5042556;28;20612;-60
2023/05/19 06:12:52;;;;;;;2.50;0.80;;;;;;;;;;5043271;28;20257;-59
2023/05/19 06:15:20;;;;;;;2.33;0.73;;;;;;;;;;5041757;28;20214;-60
2023/05/19 06:18:05;;;;;;;1.83;0.70;;;;;;;;;;5045378;28;20218;-60
2023/05/19 06:20:32;;;;;;;4.50;0.77;;;;;;;;;;5043211;28;20325;-60
2023/05/19 06:23:00;;;;;;;2.60;0.80;;;;;;;;;;5070687;28;20650;-59
2023/05/19 06:25:28;;;;;;;3.33;0.67;;;;;;;;;;5070648;28;20185;-61
2023/05/19 06:27:56;;;;;;;3.77;1.00;;;;;;;;;;5052426;28;20681;-61
2023/05/19 06:30:23;;;;;;;3.47;0.90;;;;;;;;;;5052536;28;20726;-61
2023/05/19 06:33:08;;;;;;;3.27;0.80;;;;;;;;;;5052800;28;20657;-60
2023/05/19 06:35:36;;;;;;;3.73;0.80;;;;;;;;;;5052473;28;20339;-60
2023/05/19 06:38:03;;;;;;;1.97;0.90;;;;;;;;;;5052428;28;20301;-60
2023/05/19 06:40:31;;;;;;;2.23;1.00;;;;;;;;;;5047145;28;20293;-60
2023/05/19 06:43:03;;;;;;;3.03;0.90;;;;;;;;;;5044935;28;20705;-59
2023/05/19 06:45:51;;;;;;;3.93;0.77;;;;;;;;;;5053092;28;20249;-63
2023/05/19 06:48:23;;;;;;;2.63;1.00;;;;;;;;;;5051003;28;20183;-62
2023/05/19 06:50:51;;;;;;;4.70;1.20;;;;;;;;;;5049514;28;20198;-64
2023/05/19 06:53:22;;;;;;;3.60;1.20;;;;;;;;;;5051605;28;20190;-64
2023/05/19 06:55:51;;;;;;;3.50;1.00;;;;;;;;;;5069122;28;20202;-64
2023/05/19 06:58:27;;;;;;;4.67;1.07;;;;;;;;;;5051647;28;20688;-61
2023/05/19 07:00:55;;;;;;;4.60;1.03;;;;;;;;;;5051430;28;20206;-64
2023/05/19 07:03:26;;;;;;;2.37;1.00;;;;;;;;;;5045195;28;20195;-65
2023/05/19 07:05:54;;;;;;;2.20;0.83;;;;;;;;;;5058429;28;20202;-65
2023/05/19 07:08:21;;;;;;;5.90;1.20;;;;;;;;;;5045693;28;20605;-65
2023/05/19 07:10:48;;;;;;;1.77;0.80;;;;;;;;;;5061711;28;20198;-60
2023/05/19 07:13:17;;;;;;;2.23;0.80;;;;;;;;;;5051051;28;20190;-63
2023/05/19 07:15:44;;;;;;;2.60;0.90;;;;;;;;;;5047456;28;20195;-62
2023/05/19 07:18:11;;;;;;;6.90;0.90;;;;;;;;;;5047441;28;20238;-64
2023/05/19 07:20:38;;;;;;;2.17;0.63;;;;;;;;;;5039255;28;20202;-65
2023/05/19 07:23:05;;;;;;;1.80;0.80;;;;;;;;;;5047529;28;20227;-64
2023/05/19 07:25:32;;;;;;;1.10;0.70;;;;;;;;;;5050467;28;20220;-63
2023/05/19 07:27:58;;;;;;;1.77;0.60;;;;;;;;;;5067872;28;20290;-60
2023/05/19 07:30:26;;;;;;;2.83;0.70;;;;;;;;;;5068561;28;20236;-61
2023/05/19 07:32:53;;;;;;;2.77;0.70;;;;;;;;;;5069215;28;20257;-63
2023/05/19 07:35:23;;;;;;;2.77;0.60;;;;;;;;;;5068847;28;20202;-61
2023/05/19 07:37:50;;;;;;;2.83;0.70;;;;;;;;;;5068606;28;20240;-60
2023/05/19 07:40:17;;;;;;;1.73;0.80;;;;;;;;;;5076749;28;20216;-60
2023/05/19 07:42:45;;;;;;;5.33;0.90;;;;;;;;;;5089109;28;20212;-60
2023/05/19 07:45:11;;;;;;;1.43;0.70;;;;;;;;;;5089080;28;20197;-61
2023/05/19 07:47:39;;;;;;;2.73;0.70;;;;;;;;;;5088831;28;21122;-61
2023/05/19 07:50:06;;;;;;;1.93;0.97;;;;;;;;;;5077370;28;20181;-62
2023/05/19 07:52:33;;;;;;;3.93;0.90;;;;;;;;;;5088909;28;20219;-61
2023/05/19 07:55:00;;;;;;;2.93;0.83;;;;;;;;;;5082343;28;20191;-64
2023/05/19 07:57:28;;;;;;;4.10;0.80;;;;;;;;;;5067717;28;20309;-61
2023/05/19 07:59:55;;;;;;;1.23;0.60;;;;;;;;;;5068293;28;20240;-60
2023/05/19 08:02:22;;;;;;;2.13;0.90;;;;;;;;;;5068017;28;20257;-61
2023/05/19 08:04:49;;;;;;;1.87;0.70;;;;;;;;;;5067755;28;20194;-60
2023/05/19 08:07:16;;;;;;;2.33;0.77;;;;;;;;;;5057839;28;20190;-60
2023/05/19 08:09:42;;;;;;;4.67;1.00;;;;;;;;;;5051636;28;20221;-60
2023/05/19 08:12:10;;;;;;;3.23;1.10;;;;;;;;;;5067889;28;20201;-60
2023/05/19 08:14:37;;;;;;;3.00;0.90;;;;;;;;;;5068180;28;20255;-60
2023/05/19 08:17:04;;;;;;;4.37;0.90;;;;;;;;;;5067601;28;20725;-61
2023/05/19 08:19:30;;;;;;;1.80;0.80;;;;;;;;;;5068416;28;20252;-67
2023/05/19 08:22:00;;;;;;;1.97;0.80;;;;;;;;;;5068352;28;20186;-60
2023/05/19 08:24:31;;;;;;;2.37;0.73;;;;;;;;;;5066462;28;20297;-61
2023/05/19 08:26:59;;;;;;;1.67;0.60;;;;;;;;;;5068317;28;20194;-60
2023/05/19 08:29:26;;;;;;;3.73;0.90;;;;;;;;;;5067497;28;20285;-60
2023/05/19 08:31:53;;;;;;;2.60;0.70;;;;;;;;;;5068030;28;20225;-60
2023/05/19 08:34:19;;;;;;;1.70;0.80;;;;;;;;;;5065470;28;20239;-61
2023/05/19 08:36:46;;;;;;;1.83;0.87;;;;;;;;;;5068033;28;20938;-60
2023/05/19 08:39:15;;;;;;;2.23;1.00;;;;;;;;;;5067391;28;20216;-60
2023/05/19 08:41:43;;;;;;;2.73;0.70;;;;;;;;;;5063507;28;20186;-60
2023/05/19 08:44:10;;;;;;;1.03;0.60;;;;;;;;;;5064962;28;20189;-63
2023/05/19 08:46:37;;;;;;;2.23;0.90;;;;;;;;;;5084786;28;20630;-61
2023/05/19 08:49:08;;;;;;;2.37;0.80;;;;;;;;;;5040902;28;20217;-61
2023/05/19 08:51:40;;;;;;;3.30;0.83;;;;;;;;;;5066069;28;20201;-61
2023/05/19 08:54:13;;;;;;;2.10;0.97;;;;;;;;;;5030143;28;20728;-61
2023/05/19 08:56:41;;;;;;;2.43;0.70;;;;;;;;;;5086183;28;20215;-61
2023/05/19 08:59:08;;;;;;;2.20;0.70;;;;;;;;;;5087172;28;20868;-61
2023/05/19 09:01:35;;;;;;;2.87;0.87;;;;;;;;;;5052285;28;20566;-61
2023/05/19 09:04:03;;;;;;;3.30;1.10;;;;;;;;;;5066521;28;20193;-58
2023/05/19 09:06:31;;;;;;;2.27;0.80;;;;;;;;;;5049617;28;20202;-58
2023/05/19 09:08:57;;;;;;;2.63;0.90;;;;;;;;;;5049730;28;20269;-58
2023/05/19 09:11:24;;;;;;;1.90;0.60;;;;;;;;;;5084977;28;20216;-58
2023/05/19 09:13:51;;;;;;;3.03;1.00;;;;;;;;;;5050046;28;20191;-58
2023/05/19 09:16:18;;;;;;;3.10;1.00;;;;;;;;;;5064466;28;20911;-63
2023/05/19 09:18:57;;;;;;;2.17;0.80;;;;;;;;;;5067413;28;20230;-62
2023/05/19 09:21:32;;;;;;;6.83;0.90;;;;;;;;;;5068111;28;20194;-63
2023/05/19 09:24:05;;;;;;;1.63;0.83;;;;;;;;;;5067885;28;20735;-62
2023/05/19 09:26:37;;;;;;;2.23;0.83;;;;;;;;;;5067338;28;20228;-63
2023/05/19 09:29:10;;;;;;;4.07;0.90;;;;;;;;;;5067037;28;20197;-61
2023/05/19 09:31:49;;;;;;;3.17;1.00;;;;;;;;;;5054759;28;20185;-62
2023/05/19 09:34:16;;;;;;;2.67;1.10;;;;;;;;;;5067406;28;20189;-62
2023/05/19 09:36:43;;;;;;;3.37;1.20;;;;;;;;;;5043586;28;20252;-63
2023/05/19 09:39:15;;;;;;;5.20;1.33;;;;;;;;;;5066565;28;20190;-61
2023/05/19 09:41:42;;;;;;;4.30;1.13;;;;;;;;;;5066437;28;20273;-61
2023/05/19 09:44:19;;;;;;;2.37;1.00;;;;;;;;;;5066777;28;20616;-61
2023/05/19 09:46:52;;;;;;;4.40;1.53;;;;;;;;;;5046873;28;20191;-61
2023/05/19 09:49:20;;;;;;;3.80;1.30;;;;;;;;;;5059349;28;20232;-61
2023/05/19 09:51:48;;;;;;;5.97;0.90;;;;;;;;;;5066724;28;20198;-60
2023/05/19 09:54:15;;;;;;;4.43;1.23;;;;;;;;;;5048448;28;20200;-60
2023/05/19 09:56:42;;;;;;;3.87;0.90;;;;;;;;;;5048515;28;20194;-61
2023/05/19 09:59:08;;;;;;;1.73;0.73;;;;;;;;;;5066160;28;20198;-60
2023/05/19 10:01:36;;;;;;;2.93;0.70;;;;;;;;;;5086176;28;20197;-60
2023/05/19 10:04:03;;;;;;;4.50;1.03;;;;;;;;;;5086742;28;20201;-60
2023/05/19 10:06:31;;;;;;;3.90;1.23;;;;;;;;;;5046706;28;20256;-61
2023/05/19 10:09:01;;;;;;;2.13;0.90;;;;;;;;;;5049771;28;20201;-61
2023/05/19 10:11:28;;;;;;;4.07;0.70;;;;;;;;;;5066453;28;20657;-60
2023/05/19 10:13:55;;;;;;;3.10;1.10;;;;;;;;;;5066830;28;20191;-61
2023/05/19 10:16:22;;;;;;;5.30;1.13;;;;;;;;;;5048888;28;20194;-61
2023/05/19 10:18:49;;;;;;;2.13;0.83;;;;;;;;;;5066128;28;20226;-61
2023/05/19 10:21:16;;;;;;;3.13;1.10;;;;;;;;;;5065776;28;20224;-61
2023/05/19 10:23:42;;;;;;;4.10;1.00;;;;;;;;;;5061522;28;20187;-61
2023/05/19 10:26:11;;;;;;;5.53;1.40;;;;;;;;;;5062160;28;20186;-61
2023/05/19 10:28:38;;;;;;;3.40;1.10;;;;;;;;;;5070306;28;20186;-60
2023/05/19 10:31:06;;;;;;;2.23;1.30;;;;;;;;;;5052602;28;20240;-61
2023/05/19 10:33:40;;;;;;;5.67;1.70;;;;;;;;;;5070014;28;20225;-61
2023/05/19 10:36:13;;;;;;;3.47;1.47;;;;;;;;;;5069676;28;20265;-63
2023/05/19 10:38:41;;;;;;;3.70;1.20;;;;;;;;;;5069433;28;20230;-61
2023/05/19 10:41:13;;;;;;;2.37;1.03;;;;;;;;;;5069769;28;20182;-61
2023/05/19 10:43:43;;;;;;;3.27;0.97;;;;;;;;;;5051854;28;20202;-61
2023/05/19 10:46:11;;;;;;;3.03;1.30;;;;;;;;;;5065648;28;20217;-60
2023/05/19 10:48:38;;;;;;;6.23;1.60;;;;;;;;;;5053079;28;20186;-61
2023/05/19 10:51:05;;;;;;;3.83;1.10;;;;;;;;;;5052792;28;20194;-61
2023/05/19 10:53:33;;;;;;;2.33;1.10;;;;;;;;;;5052835;28;20178;-61
2023/05/19 10:56:05;;;;;;;3.63;1.70;;;;;;;;;;5070347;28;20209;-61
2023/05/19 10:58:43;;;;;;;3.43;1.33;;;;;;;;;;5070435;28;20214;-59
2023/05/19 11:01:13;;;;;;;11.43;2.53;;;;;;;;;;5084277;28;20207;-60
2023/05/19 11:03:48;;;;;;;3.63;1.43;;;;;;;;;;5090529;28;20664;-60
2023/05/19 11:06:28;;;;;;;4.83;1.13;;;;;;;;;;5074003;28;20239;-61
2023/05/19 11:08:59;;;;;;;2.73;1.50;;;;;;;;;;5062307;28;20182;-60
2023/05/19 11:11:45;;;;;;;4.57;1.40;;;;;;;;;;5067754;28;20286;-60
2023/05/19 11:14:17;;;;;;;4.27;1.50;;;;;;;;;;5067583;28;20194;-59
2023/05/19 11:16:47;;;;;;;5.83;1.40;;;;;;;;;;5050758;28;20522;-60
2023/05/19 11:19:18;;;;;;;4.40;1.30;;;;;;;;;;5053810;28;20230;-60
2023/05/19 11:21:53;;;;;;;1.73;1.50;;;;;;;;;;5049397;28;20546;-59
2023/05/19 11:24:37;;;;;;;4.57;1.60;;;;;;;;;;5049496;28;20190;-61
2023/05/19 11:27:19;;;;;;;4.83;1.30;;;;;;;;;;5069439;28;20205;-62
2023/05/19 11:29:48;;;;;;;2.07;1.20;;;;;;;;;;5069542;28;20240;-60
2023/05/19 11:32:14;;;;;;;4.27;1.40;;;;;;;;;;5069257;28;20225;-60
2023/05/19 11:34:42;;;;;;;4.63;1.80;;;;;;;;;;5067426;28;20194;-59
2023/05/19 11:37:10;;;;;;;3.63;1.30;;;;;;;;;;5050662;28;20186;-61
2023/05/19 11:39:38;;;;;;;2.37;1.33;;;;;;;;;;5069426;28;20190;-61
2023/05/19 11:42:12;;;;;;;3.50;1.40;;;;;;;;;;5050739;28;20226;-61
2023/05/19 11:44:45;;;;;;;3.93;1.30;;;;;;;;;;5069133;28;20202;-60
2023/05/19 11:47:12;;;;;;;2.43;1.47;;;;;;;;;;5069170;28;20576;-61
2023/05/19 11:49:43;;;;;;;5.53;1.20;;;;;;;;;;5069061;28;20186;-60
2023/05/19 11:52:10;;;;;;;2.87;1.40;;;;;;;;;;5050873;28;20241;-59
2023/05/19 11:54:38;;;;;;;3.77;1.47;;;;;;;;;;5071266;28;20197;-59
2023/05/19 11:57:05;;;;;;;2.50;1.70;;;;;;;;;;5069702;28;20210;-61
2023/05/19 11:59:35;;;;;;;4.10;1.60;;;;;;;;;;5066060;28;20655;-64
2023/05/19 12:02:14;;;;;;;5.13;1.60;;;;;;;;;;5067927;28;20189;-62
2023/05/19 12:04:41;;;;;;;5.00;1.60;;;;;;;;;;5071537;28;20229;-62
2023/05/19 12:07:09;;;;;;;2.57;1.40;;;;;;;;;;5088789;28;20177;-62
2023/05/19 12:09:37;;;;;;;4.37;2.00;;;;;;;;;;5085751;28;20182;-61
2023/05/19 12:12:04;;;;;;;5.77;2.03;;;;;;;;;;5066392;28;20189;-61
2023/05/19 12:14:31;;;;;;;4.03;2.10;;;;;;;;;;5049647;28;20179;-61
2023/05/19 12:16:58;;;;;;;3.83;1.50;;;;;;;;;;5063941;28;20195;-61
2023/05/19 12:19:26;;;;;;;2.20;1.20;;;;;;;;;;5050030;28;21065;-61
2023/05/19 12:21:53;;;;;;;4.40;1.50;;;;;;;;;;5052121;28;20194;-61
2023/05/19 12:24:20;;;;;;;2.70;1.40;;;;;;;;;;5048100;28;20906;-65
2023/05/19 12:26:49;;;;;;;4.77;1.87;;;;;;;;;;5050499;28;20228;-59
2023/05/19 12:29:16;;;;;;;4.07;1.70;;;;;;;;;;5067620;28;20597;-60
2023/05/19 12:31:45;;;;;;;3.27;1.20;;;;;;;;;;5068254;28;20217;-60
2023/05/19 12:34:12;;;;;;;1.33;1.10;;;;;;;;;;5067810;28;20214;-60
2023/05/19 12:36:39;;;;;;;2.10;1.10;;;;;;;;;;5063594;28;20194;-61
2023/05/19 12:39:08;;;;;;;4.83;1.30;;;;;;;;;;5049305;28;20234;-60
2023/05/19 12:41:35;;;;;;;2.93;1.10;;;;;;;;;;5046087;28;20190;-60
2023/05/19 12:44:12;;;;;;;2.20;1.30;;;;;;;;;;5064229;28;20210;-61
2023/05/19 12:46:42;;;;;;;3.20;1.20;;;;;;;;;;5059909;28;20279;-62
2023/05/19 12:49:09;;;;;;;2.13;1.20;;;;;;;;;;5066915;28;20202;-60
2023/05/19 12:51:36;;;;;;;3.03;1.30;;;;;;;;;;5067242;28;20188;-61
2023/05/19 12:54:04;;;;;;;5.47;1.40;;;;;;;;;;5066848;28;20186;-62
2023/05/19 12:56:31;;;;;;;2.30;1.10;;;;;;;;;;5066195;28;20233;-61
2023/05/19 12:58:59;;;;;;;2.50;1.20;;;;;;;;;;5068914;28;20561;-62
2023/05/19 13:01:26;;;;;;;3.47;1.17;;;;;;;;;;5042852;28;20292;-61
2023/05/19 13:03:53;;;;;;;1.70;1.10;;;;;;;;;;5046381;28;20277;-62
2023/05/19 13:06:20;;;;;;;3.73;1.10;;;;;;;;;;5065689;28;20198;-62
2023/05/19 13:08:55;;;;;;;4.50;1.30;;;;;;;;;;5068850;28;20596;-62
2023/05/19 13:11:22;;;;;;;2.33;1.30;;;;;;;;;;5075302;28;20678;-61
2023/05/19 13:13:49;;;;;;;2.17;1.30;;;;;;;;;;5054721;28;20199;-62
2023/05/19 13:16:16;;;;;;;2.27;1.00;;;;;;;;;;5051047;28;20228;-61
2023/05/19 13:18:43;;;;;;;2.93;1.70;;;;;;;;;;5068589;28;20273;-62
2023/05/19 13:21:12;;;;;;;1.87;0.97;;;;;;;;;;5077137;28;20194;-60
2023/05/19 13:23:39;;;;;;;1.53;1.20;;;;;;;;;;5069214;28;20232;-60
2023/05/19 13:26:10;;;;;;;3.90;1.03;;;;;;;;;;5066631;28;20188;-60
2023/05/19 13:28:37;;;;;;;3.63;1.30;;;;;;;;;;5049288;28;20194;-60
2023/05/19 13:31:04;;;;;;;1.80;1.00;;;;;;;;;;5045311;28;20226;-60
2023/05/19 13:33:30;;;;;;;2.47;1.00;;;;;;;;;;5068416;28;20537;-60
2023/05/19 13:35:57;;;;;;;3.00;1.30;;;;;;;;;;5060190;28;20550;-61
2023/05/19 13:38:24;;;;;;;4.63;1.57;;;;;;;;;;5031357;28;20293;-60
2023/05/19 13:40:51;;;;;;;2.70;1.20;;;;;;;;;;5069541;28;20197;-61
2023/05/19 13:43:18;;;;;;;2.70;1.30;;;;;;;;;;5056837;28;20897;-60
2023/05/19 13:45:45;;;;;;;3.67;0.90;;;;;;;;;;5056008;28;20264;-60
2023/05/19 13:48:12;;;;;;;2.37;1.20;;;;;;;;;;5045669;28;20621;-60
2023/05/19 13:50:39;;;;;;;1.87;1.40;;;;;;;;;;5056389;28;20190;-60
2023/05/19 13:53:05;;;;;;;4.00;1.33;;;;;;;;;;5050216;28;20187;-60
2023/05/19 13:55:32;;;;;;;2.90;1.10;;;;;;;;;;5059822;28;20186;-61
2023/05/19 13:57:59;;;;;;;2.50;1.10;;;;;;;;;;5052501;28;20236;-60
2023/05/19 14:00:26;;;;;;;2.43;1.30;;;;;;;;;;5052409;28;20201;-60
2023/05/19 14:02:53;;;;;;;2.13;1.10;;;;;;;;;;5062165;28;20208;-60
2023/05/19 14:05:21;;;;;;;3.90;1.03;;;;;;;;;;5057861;28;20963;-60
2023/05/19 14:07:48;;;;;;;3.27;1.20;;;;;;;;;;5034138;28;20546;-61
2023/05/19 14:10:15;;;;;;;1.67;1.30;;;;;;;;;;5064938;28;20308;-60
2023/05/19 14:12:43;;;;;;;2.07;1.10;;;;;;;;;;5094110;28;20261;-60
2023/05/19 14:15:36;;;;;;;3.10;1.30;;;;;;;;;;5082809;28;20236;-62
2023/05/19 14:18:04;;;;;;;2.77;1.20;;;;;;;;;;5070953;28;20229;-60
2023/05/19 14:20:32;;;;;;;3.33;1.47;;;;;;;;;;5072446;28;20197;-61
2023/05/19 14:22:59;;;;;;;4.77;1.50;;;;;;;;;;5065394;28;20928;-62
2023/05/19 14:25:27;;;;;;;4.17;1.60;;;;;;;;;;5051648;28;20198;-62
2023/05/19 14:27:54;;;;;;;4.73;1.40;;;;;;;;;;5071328;28;20665;-61
2023/05/19 14:30:21;;;;;;;2.90;1.60;;;;;;;;;;5061189;28;20202;-62
2023/05/19 14:32:48;;;;;;;2.60;1.53;;;;;;;;;;5065908;28;20193;-62
2023/05/19 14:35:15;;;;;;;4.67;1.73;;;;;;;;;;5056903;28;20515;-60
2023/05/19 14:37:42;;;;;;;3.37;1.53;;;;;;;;;;5056918;28;20194;-60
2023/05/19 14:40:09;;;;;;;5.50;1.63;;;;;;;;;;5062459;28;20245;-60
2023/05/19 14:42:35;;;;;;;2.10;1.30;;;;;;;;;;5059140;28;20191;-60
2023/05/19 14:45:02;;;;;;;5.37;1.73;;;;;;;;;;5066290;28;20191;-60
2023/05/19 14:47:29;;;;;;;2.20;1.57;;;;;;;;;;5048203;28;20198;-61
2023/05/19 14:49:56;;;;;;;2.60;1.10;;;;;;;;;;5055007;28;20597;-60
2023/05/19 14:52:23;;;;;;;1.07;0.93;;;;;;;;;;5059456;28;20222;-60
2023/05/19 14:54:49;;;;;;;2.97;1.30;;;;;;;;;;5052841;28;20225;-60
2023/05/19 14:57:16;;;;;;;1.87;1.40;;;;;;;;;;5062229;28;20717;-61
2023/05/19 14:59:43;;;;;;;4.00;1.70;;;;;;;;;;5056969;28;20242;-61
2023/05/19 15:02:11;;;;;;;4.10;1.73;;;;;;;;;;5054103;28;20554;-61
2023/05/19 15:04:38;;;;;;;2.93;1.70;;;;;;;;;;5069758;28;20218;-61
2023/05/19 15:07:05;;;;;;;2.73;1.70;;;;;;;;;;5052048;28;20190;-62
2023/05/19 15:09:37;;;;;;;3.20;2.10;;;;;;;;;;5059409;28;20194;-61
2023/05/19 15:12:04;;;;;;;5.10;2.73;;;;;;;;;;5045388;28;20646;-64
2023/05/19 15:14:31;;;;;;;4.33;2.47;;;;;;;;;;5063509;28;20720;-61
2023/05/19 15:16:59;;;;;;;3.57;2.40;;;;;;;;;;5038653;28;20226;-61
2023/05/19 15:19:25;;;;;;;3.00;1.90;;;;;;;;;;5060058;28;20237;-59
2023/05/19 15:21:53;;;;;;;2.87;2.20;;;;;;;;;;5048944;28;20198;-60
2023/05/19 15:24:22;;;;;;;4.80;2.60;;;;;;;;;;5060231;28;20194;-60
2023/05/19 15:26:48;;;;;;;4.97;3.77;;;;;;;;;;5040589;28;20178;-60